Terminal Aerodrome Forecast
Issued by NWS

Home | Current Version | Previous Version | Text Only | Print | Product List | Glossary On
Versions: 1 2 3 4 5 6 7 8 9 10 11 12 13 14 15 16 17 18 19 20 21 22 23 24 25 26
000
FTUS43 KPAH 221120
TAFOWB
TAF
KOWB 221120Z 2212/2312 08009KT P6SM SCT060 OVC110
     FM221700 10012KT P6SM VCSH SCT030 OVC060
     FM222100 11014G23KT P6SM -SHRA SCT015 OVC030
     FM230300 09015G25KT 4SM -SHRA SCT005 OVC015
     FM230900 06013G21KT 3SM -SHRA OVC006=

USA.gov is the U.S. government's official web portal to all federal, state and local government web resources and services.